sensor_id;sensor_type;location;lat;lon;timestamp;pressure;altitude;pressure_sealevel;temperature;humidity
35676;BME280;21790;42.668;23.298;2023-08-20T00:00:13;94935.19;;;29.25;35.36
35676;BME280;21790;42.668;23.298;2023-08-20T00:02:43;94937.13;;;29.22;35.49
35676;BME280;21790;42.668;23.298;2023-08-20T00:05:09;94928.97;;;29.19;35.49
35676;BME280;21790;42.668;23.298;2023-08-20T00:07:34;94937.72;;;29.13;35.56
35676;BME280;21790;42.668;23.298;2023-08-20T00:10:00;94938.13;;;29.09;35.73
35676;BME280;21790;42.668;23.298;2023-08-20T00:12:25;94934.53;;;29.09;35.64
35676;BME280;21790;42.668;23.298;2023-08-20T00:14:55;94933.63;;;29.06;35.64
35676;BME280;21790;42.668;23.298;2023-08-20T00:17:22;94926.75;;;29.09;35.40
35676;BME280;21790;42.668;23.298;2023-08-20T00:19:49;94935.81;;;28.91;35.89
35676;BME280;21790;42.668;23.298;2023-08-20T00:22:15;94930.91;;;28.84;36.12
35676;BME280;21790;42.668;23.298;2023-08-20T00:24:40;94928.94;;;28.94;35.70
35676;BME280;21790;42.668;23.298;2023-08-20T00:27:06;94934.19;;;29.05;35.64
35676;BME280;21790;42.668;23.298;2023-08-20T00:29:31;94936.69;;;29.01;35.71
35676;BME280;21790;42.668;23.298;2023-08-20T00:31:56;94941.06;;;29.02;35.67
35676;BME280;21790;42.668;23.298;2023-08-20T00:34:22;94932.50;;;29.02;35.81
35676;BME280;21790;42.668;23.298;2023-08-20T00:36:47;94928.28;;;29.10;35.57
35676;BME280;21790;42.668;23.298;2023-08-20T00:39:12;94928.91;;;29.01;35.40
35676;BME280;21790;42.668;23.298;2023-08-20T00:41:38;94934.69;;;28.86;35.65
35676;BME280;21790;42.668;23.298;2023-08-20T00:44:03;94925.03;;;28.82;35.79
35676;BME280;21790;42.668;23.298;2023-08-20T00:46:29;94928.81;;;28.84;36.07
35676;BME280;21790;42.668;23.298;2023-08-20T00:48:54;94930.38;;;28.78;36.01
35676;BME280;21790;42.668;23.298;2023-08-20T00:51:25;94938.72;;;28.76;35.93
35676;BME280;21790;42.668;23.298;2023-08-20T00:53:50;94937.91;;;28.90;35.81
35676;BME280;21790;42.668;23.298;2023-08-20T00:56:16;94932.13;;;28.98;35.56
35676;BME280;21790;42.668;23.298;2023-08-20T00:58:42;94921.16;;;28.94;35.68
35676;BME280;21790;42.668;23.298;2023-08-20T01:01:07;94922.28;;;28.99;35.53
35676;BME280;21790;42.668;23.298;2023-08-20T01:03:33;94927.28;;;28.91;35.56
35676;BME280;21790;42.668;23.298;2023-08-20T01:06:02;94927.63;;;28.95;35.85
35676;BME280;21790;42.668;23.298;2023-08-20T01:08:32;94920.00;;;28.97;35.55
35676;BME280;21790;42.668;23.298;2023-08-20T01:11:49;94928.31;;;29.03;35.47
35676;BME280;21790;42.668;23.298;2023-08-20T01:13:47;94920.75;;;28.98;35.91
35676;BME280;21790;42.668;23.298;2023-08-20T01:16:13;94924.72;;;29.02;35.47
35676;BME280;21790;42.668;23.298;2023-08-20T01:18:38;94929.06;;;29.03;35.66
35676;BME280;21790;42.668;23.298;2023-08-20T01:21:06;94924.94;;;28.97;35.64
35676;BME280;21790;42.668;23.298;2023-08-20T01:23:42;94917.31;;;29.07;35.59
35676;BME280;21790;42.668;23.298;2023-08-20T01:28:54;94921.13;;;29.02;35.63
35676;BME280;21790;42.668;23.298;2023-08-20T01:31:21;94931.00;;;29.01;35.76
35676;BME280;21790;42.668;23.298;2023-08-20T01:33:48;94920.22;;;28.92;35.91
35676;BME280;21790;42.668;23.298;2023-08-20T01:36:14;94914.28;;;29.05;35.62
35676;BME280;21790;42.668;23.298;2023-08-20T01:38:41;94917.13;;;29.05;35.89
35676;BME280;21790;42.668;23.298;2023-08-20T01:41:06;94916.59;;;28.99;35.70
35676;BME280;21790;42.668;23.298;2023-08-20T01:43:32;94911.84;;;29.01;35.61
35676;BME280;21790;42.668;23.298;2023-08-20T01:45:57;94910.13;;;28.98;35.90
35676;BME280;21790;42.668;23.298;2023-08-20T01:48:23;94913.16;;;29.00;35.95
35676;BME280;21790;42.668;23.298;2023-08-20T01:50:49;94909.75;;;29.02;35.83
35676;BME280;21790;42.668;23.298;2023-08-20T01:53:14;94912.97;;;28.98;36.00
35676;BME280;21790;42.668;23.298;2023-08-20T01:55:39;94903.16;;;28.92;35.76
35676;BME280;21790;42.668;23.298;2023-08-20T01:58:05;94901.47;;;28.89;36.25
35676;BME280;21790;42.668;23.298;2023-08-20T02:00:30;94898.84;;;28.83;36.12
35676;BME280;21790;42.668;23.298;2023-08-20T02:02:56;94896.19;;;28.85;36.30
35676;BME280;21790;42.668;23.298;2023-08-20T02:05:22;94893.53;;;28.87;36.28
35676;BME280;21790;42.668;23.298;2023-08-20T02:07:48;94893.16;;;28.83;36.19
35676;BME280;21790;42.668;23.298;2023-08-20T02:10:13;94888.88;;;28.75;36.48
35676;BME280;21790;42.668;23.298;2023-08-20T02:12:39;94890.91;;;28.82;36.58
35676;BME280;21790;42.668;23.298;2023-08-20T02:15:04;94886.38;;;28.71;36.40
35676;BME280;21790;42.668;23.298;2023-08-20T02:17:30;94890.19;;;28.74;36.49
35676;BME280;21790;42.668;23.298;2023-08-20T02:19:55;94885.81;;;28.33;37.40
35676;BME280;21790;42.668;23.298;2023-08-20T02:22:21;94886.16;;;28.44;37.19
35676;BME280;21790;42.668;23.298;2023-08-20T02:24:46;94885.50;;;28.21;37.30
35676;BME280;21790;42.668;23.298;2023-08-20T02:27:12;94891.19;;;28.21;37.24
35676;BME280;21790;42.668;23.298;2023-08-20T02:29:37;94895.38;;;28.20;37.50
35676;BME280;21790;42.668;23.298;2023-08-20T02:32:03;94892.88;;;28.24;37.49
35676;BME280;21790;42.668;23.298;2023-08-20T02:34:28;94886.09;;;28.12;37.83
35676;BME280;21790;42.668;23.298;2023-08-20T02:36:54;94896.41;;;28.40;37.48
35676;BME280;21790;42.668;23.298;2023-08-20T02:39:21;94895.47;;;28.37;37.28
35676;BME280;21790;42.668;23.298;2023-08-20T02:41:47;94895.84;;;28.41;37.60
35676;BME280;21790;42.668;23.298;2023-08-20T02:44:13;94897.19;;;28.40;37.35
35676;BME280;21790;42.668;23.298;2023-08-20T02:46:38;94897.56;;;28.37;37.86
35676;BME280;21790;42.668;23.298;2023-08-20T02:49:06;94902.28;;;28.42;37.74
35676;BME280;21790;42.668;23.298;2023-08-20T02:51:31;94911.03;;;28.36;37.69
35676;BME280;21790;42.668;23.298;2023-08-20T02:53:57;94907.03;;;28.39;37.77
35676;BME280;21790;42.668;23.298;2023-08-20T02:56:22;94899.69;;;28.21;37.87
35676;BME280;21790;42.668;23.298;2023-08-20T02:58:48;94916.34;;;28.32;37.79
35676;BME280;21790;42.668;23.298;2023-08-20T03:01:25;94907.44;;;28.28;37.78
35676;BME280;21790;42.668;23.298;2023-08-20T03:03:51;94908.63;;;28.10;37.99
35676;BME280;21790;42.668;23.298;2023-08-20T03:06:17;94922.28;;;28.04;38.48
35676;BME280;21790;42.668;23.298;2023-08-20T03:08:42;94918.50;;;27.94;38.22
35676;BME280;21790;42.668;23.298;2023-08-20T03:11:08;94925.13;;;28.04;38.57
35676;BME280;21790;42.668;23.298;2023-08-20T03:13:34;94928.34;;;28.00;38.24
35676;BME280;21790;42.668;23.298;2023-08-20T03:15:59;94924.22;;;27.78;38.63
35676;BME280;21790;42.668;23.298;2023-08-20T03:18:25;94921.22;;;27.61;38.81
35676;BME280;21790;42.668;23.298;2023-08-20T03:20:51;94910.63;;;27.69;39.12
35676;BME280;21790;42.668;23.298;2023-08-20T03:23:16;94917.44;;;27.74;38.88
35676;BME280;21790;42.668;23.298;2023-08-20T03:25:42;94920.09;;;27.64;39.23
35676;BME280;21790;42.668;23.298;2023-08-20T03:28:07;94921.25;;;27.54;39.12
35676;BME280;21790;42.668;23.298;2023-08-20T03:30:33;94912.72;;;27.54;39.51
35676;BME280;21790;42.668;23.298;2023-08-20T03:32:59;94912.13;;;27.47;39.73
35676;BME280;21790;42.668;23.298;2023-08-20T03:35:24;94908.91;;;27.66;39.27
35676;BME280;21790;42.668;23.298;2023-08-20T03:37:50;94911.38;;;27.62;39.42
35676;BME280;21790;42.668;23.298;2023-08-20T03:40:15;94915.72;;;27.40;39.53
35676;BME280;21790;42.668;23.298;2023-08-20T03:42:41;94906.44;;;27.40;39.72
35676;BME280;21790;42.668;23.298;2023-08-20T03:45:07;94905.88;;;27.41;39.78
35676;BME280;21790;42.668;23.298;2023-08-20T03:47:32;94908.16;;;27.43;39.63
35676;BME280;21790;42.668;23.298;2023-08-20T03:49:58;94894.72;;;27.36;39.94
35676;BME280;21790;42.668;23.298;2023-08-20T03:52:23;94901.94;;;27.22;40.70
35676;BME280;21790;42.668;23.298;2023-08-20T03:54:49;94899.66;;;27.35;40.12
35676;BME280;21790;42.668;23.298;2023-08-20T03:57:15;94901.38;;;27.38;40.19
35676;BME280;21790;42.668;23.298;2023-08-20T03:59:41;94906.47;;;27.47;40.23
35676;BME280;21790;42.668;23.298;2023-08-20T04:02:06;94898.50;;;27.46;40.16
35676;BME280;21790;42.668;23.298;2023-08-20T04:04:32;94899.47;;;27.18;40.71
35676;BME280;21790;42.668;23.298;2023-08-20T04:06:57;94895.13;;;27.25;40.33
35676;BME280;21790;42.668;23.298;2023-08-20T04:09:23;94901.94;;;27.22;40.62
35676;BME280;21790;42.668;23.298;2023-08-20T04:11:49;94895.50;;;27.14;40.90
35676;BME280;21790;42.668;23.298;2023-08-20T04:14:14;94894.56;;;27.11;40.71
35676;BME280;21790;42.668;23.298;2023-08-20T04:16:40;94904.19;;;27.31;40.34
35676;BME280;21790;42.668;23.298;2023-08-20T04:19:05;94898.91;;;27.27;40.78
35676;BME280;21790;42.668;23.298;2023-08-20T04:21:31;94899.09;;;27.22;41.13
35676;BME280;21790;42.668;23.298;2023-08-20T04:23:57;94904.94;;;27.24;40.88
35676;BME280;21790;42.668;23.298;2023-08-20T04:26:23;94896.63;;;27.11;40.98
35676;BME280;21790;42.668;23.298;2023-08-20T04:28:49;94897.59;;;27.21;40.67
35676;BME280;21790;42.668;23.298;2023-08-20T04:31:16;94902.47;;;27.28;40.93
35676;BME280;21790;42.668;23.298;2023-08-20T04:33:42;94901.38;;;27.16;41.26
35676;BME280;21790;42.668;23.298;2023-08-20T04:36:08;94910.63;;;27.09;41.41
35676;BME280;21790;42.668;23.298;2023-08-20T04:38:34;94907.22;;;27.25;41.18
35676;BME280;21790;42.668;23.298;2023-08-20T04:40:59;94912.91;;;27.33;40.80
35676;BME280;21790;42.668;23.298;2023-08-20T04:43:25;94907.97;;;27.56;40.60
35676;BME280;21790;42.668;23.298;2023-08-20T04:45:51;94909.66;;;27.74;40.75
35676;BME280;21790;42.668;23.298;2023-08-20T04:48:17;94906.81;;;27.74;40.56
35676;BME280;21790;42.668;23.298;2023-08-20T04:50:42;94902.47;;;27.81;40.23
35676;BME280;21790;42.668;23.298;2023-08-20T04:53:08;94915.50;;;27.92;40.38
35676;BME280;21790;42.668;23.298;2023-08-20T04:55:34;94906.56;;;28.03;40.45
35676;BME280;21790;42.668;23.298;2023-08-20T04:57:59;94904.84;;;28.07;40.21
35676;BME280;21790;42.668;23.298;2023-08-20T05:00:25;94914.50;;;28.19;39.84
35676;BME280;21790;42.668;23.298;2023-08-20T05:02:51;94908.53;;;28.40;40.09
35676;BME280;21790;42.668;23.298;2023-08-20T05:05:16;94918.69;;;28.58;39.42
35676;BME280;21790;42.668;23.298;2023-08-20T05:07:43;94910.06;;;28.81;39.40
35676;BME280;21790;42.668;23.298;2023-08-20T05:10:09;94915.06;;;28.98;38.92
35676;BME280;21790;42.668;23.298;2023-08-20T05:12:35;94917.41;;;29.17;38.76
35676;BME280;21790;42.668;23.298;2023-08-20T05:15:01;94916.94;;;29.28;38.63
35676;BME280;21790;42.668;23.298;2023-08-20T05:17:26;94921.88;;;29.27;38.25
35676;BME280;21790;42.668;23.298;2023-08-20T05:19:53;94918.97;;;29.10;38.93
35676;BME280;21790;42.668;23.298;2023-08-20T05:22:18;94918.84;;;29.33;38.41
35676;BME280;21790;42.668;23.298;2023-08-20T05:24:44;94915.19;;;29.57;38.02
35676;BME280;21790;42.668;23.298;2023-08-20T05:27:15;94919.31;;;29.64;37.72
35676;BME280;21790;42.668;23.298;2023-08-20T05:29:42;94915.31;;;29.67;37.74
35676;BME280;21790;42.668;23.298;2023-08-20T05:32:09;94921.34;;;29.71;37.82
35676;BME280;21790;42.668;23.298;2023-08-20T05:34:35;94931.84;;;29.85;37.44
35676;BME280;21790;42.668;23.298;2023-08-20T05:37:01;94929.47;;;29.99;37.12
35676;BME280;21790;42.668;23.298;2023-08-20T05:39:27;94933.66;;;29.98;36.92
35676;BME280;21790;42.668;23.298;2023-08-20T05:42:00;94918.22;;;30.18;36.67
35676;BME280;21790;42.668;23.298;2023-08-20T05:47:27;94931.03;;;30.44;36.21
35676;BME280;21790;42.668;23.298;2023-08-20T05:49:52;94931.75;;;30.52;35.79
35676;BME280;21790;42.668;23.298;2023-08-20T05:52:19;94932.13;;;30.66;35.79
35676;BME280;21790;42.668;23.298;2023-08-20T05:54:44;94937.66;;;30.81;35.94
35676;BME280;21790;42.668;23.298;2023-08-20T05:57:11;94935.28;;;30.87;35.46
35676;BME280;21790;42.668;23.298;2023-08-20T05:59:46;94928.38;;;30.90;35.17
35676;BME280;21790;42.668;23.298;2023-08-20T06:02:18;94929.31;;;30.93;35.02
35676;BME280;21790;42.668;23.298;2023-08-20T06:04:47;94930.53;;;30.99;35.06
35676;BME280;21790;42.668;23.298;2023-08-20T06:07:15;94925.94;;;31.04;34.74
35676;BME280;21790;42.668;23.298;2023-08-20T06:09:49;94935.72;;;31.10;34.88
35676;BME280;21790;42.668;23.298;2023-08-20T06:12:16;94930.66;;;31.19;34.92
35676;BME280;21790;42.668;23.298;2023-08-20T06:14:42;94933.72;;;31.30;34.87
35676;BME280;21790;42.668;23.298;2023-08-20T06:17:09;94933.47;;;31.36;34.54
35676;BME280;21790;42.668;23.298;2023-08-20T06:19:34;94937.97;;;31.39;34.43
35676;BME280;21790;42.668;23.298;2023-08-20T06:22:00;94939.47;;;31.40;34.49
35676;BME280;21790;42.668;23.298;2023-08-20T06:24:26;94930.78;;;31.47;34.36
35676;BME280;21790;42.668;23.298;2023-08-20T06:26:51;94941.50;;;31.56;34.59
35676;BME280;21790;42.668;23.298;2023-08-20T06:29:17;94945.75;;;31.65;34.62
35676;BME280;21790;42.668;23.298;2023-08-20T06:31:42;94935.38;;;31.70;34.39
35676;BME280;21790;42.668;23.298;2023-08-20T06:34:08;94947.75;;;31.82;34.21
35676;BME280;21790;42.668;23.298;2023-08-20T06:36:35;94943.09;;;31.86;34.73
35676;BME280;21790;42.668;23.298;2023-08-20T06:39:01;94940.59;;;32.00;34.49
35676;BME280;21790;42.668;23.298;2023-08-20T06:41:27;94943.63;;;32.12;34.07
35676;BME280;21790;42.668;23.298;2023-08-20T06:43:52;94942.81;;;31.92;34.02
35676;BME280;21790;42.668;23.298;2023-08-20T06:46:18;94946.09;;;31.79;34.30
35676;BME280;21790;42.668;23.298;2023-08-20T06:48:47;94941.16;;;31.98;34.51
35676;BME280;21790;42.668;23.298;2023-08-20T06:51:15;94941.34;;;32.10;33.88
35676;BME280;21790;42.668;23.298;2023-08-20T06:53:41;94950.88;;;32.13;33.96
35676;BME280;21790;42.668;23.298;2023-08-20T06:56:21;94943.66;;;32.31;34.75
35676;BME280;21790;42.668;23.298;2023-08-20T06:58:47;94942.59;;;32.26;35.42
35676;BME280;21790;42.668;23.298;2023-08-20T07:01:14;94935.94;;;32.14;33.98
35676;BME280;21790;42.668;23.298;2023-08-20T07:03:44;94942.09;;;32.11;34.05
35676;BME280;21790;42.668;23.298;2023-08-20T07:06:11;94936.72;;;32.15;34.10
35676;BME280;21790;42.668;23.298;2023-08-20T07:08:37;94944.53;;;32.14;33.92
35676;BME280;21790;42.668;23.298;2023-08-20T07:11:05;94941.03;;;32.06;33.43
35676;BME280;21790;42.668;23.298;2023-08-20T07:13:33;94946.38;;;31.73;33.59
35676;BME280;21790;42.668;23.298;2023-08-20T07:16:00;94945.00;;;31.65;33.54
35676;BME280;21790;42.668;23.298;2023-08-20T07:18:25;94948.03;;;31.76;33.17
35676;BME280;21790;42.668;23.298;2023-08-20T07:20:51;94940.75;;;31.56;33.35
35676;BME280;21790;42.668;23.298;2023-08-20T07:23:17;94936.41;;;31.65;33.04
35676;BME280;21790;42.668;23.298;2023-08-20T07:25:43;94942.88;;;31.65;33.14
35676;BME280;21790;42.668;23.298;2023-08-20T07:28:10;94940.66;;;31.73;32.86
35676;BME280;21790;42.668;23.298;2023-08-20T07:30:36;94952.09;;;31.64;33.19
35676;BME280;21790;42.668;23.298;2023-08-20T07:33:03;94952.56;;;31.79;32.82
35676;BME280;21790;42.668;23.298;2023-08-20T07:35:30;94944.75;;;31.80;33.20
35676;BME280;21790;42.668;23.298;2023-08-20T07:37:56;94945.34;;;31.78;33.07
35676;BME280;21790;42.668;23.298;2023-08-20T07:40:22;94949.84;;;31.81;32.88
35676;BME280;21790;42.668;23.298;2023-08-20T07:42:49;94957.19;;;31.65;32.52
35676;BME280;21790;42.668;23.298;2023-08-20T07:45:17;94952.81;;;31.64;32.63
35676;BME280;21790;42.668;23.298;2023-08-20T07:47:42;94948.88;;;31.60;32.92
35676;BME280;21790;42.668;23.298;2023-08-20T07:50:08;94948.31;;;31.61;33.15
35676;BME280;21790;42.668;23.298;2023-08-20T07:52:34;94948.31;;;31.61;32.80
35676;BME280;21790;42.668;23.298;2023-08-20T07:55:00;94954.22;;;31.46;32.57
35676;BME280;21790;42.668;23.298;2023-08-20T07:57:27;94946.78;;;31.60;32.79
35676;BME280;21790;42.668;23.298;2023-08-20T07:59:52;94951.19;;;31.71;32.57
35676;BME280;21790;42.668;23.298;2023-08-20T08:02:18;94948.56;;;31.55;32.09
35676;BME280;21790;42.668;23.298;2023-08-20T08:04:44;94946.69;;;31.77;32.36
35676;BME280;21790;42.668;23.298;2023-08-20T08:07:11;94951.63;;;31.67;31.95
35676;BME280;21790;42.668;23.298;2023-08-20T08:09:37;94946.13;;;31.88;31.53
35676;BME280;21790;42.668;23.298;2023-08-20T08:12:03;94943.44;;;32.00;31.36
35676;BME280;21790;42.668;23.298;2023-08-20T08:14:29;94947.56;;;32.16;31.45
35676;BME280;21790;42.668;23.298;2023-08-20T08:16:55;94943.06;;;32.23;30.73
35676;BME280;21790;42.668;23.298;2023-08-20T08:19:20;94946.97;;;32.37;30.87
35676;BME280;21790;42.668;23.298;2023-08-20T08:21:46;94940.06;;;32.40;29.63
35676;BME280;21790;42.668;23.298;2023-08-20T08:24:13;94949.69;;;32.54;29.48
35676;BME280;21790;42.668;23.298;2023-08-20T08:26:39;94946.22;;;32.56;30.00
35676;BME280;21790;42.668;23.298;2023-08-20T08:29:06;94949.69;;;32.54;30.10
35676;BME280;21790;42.668;23.298;2023-08-20T08:31:32;94946.53;;;32.50;30.08
35676;BME280;21790;42.668;23.298;2023-08-20T08:33:58;94951.31;;;32.57;29.57
35676;BME280;21790;42.668;23.298;2023-08-20T08:36:24;94947.72;;;32.57;29.14
35676;BME280;21790;42.668;23.298;2023-08-20T08:38:53;94940.31;;;32.63;29.06
35676;BME280;21790;42.668;23.298;2023-08-20T08:41:21;94946.38;;;32.77;28.56
35676;BME280;21790;42.668;23.298;2023-08-20T08:43:49;94941.66;;;32.91;29.20
35676;BME280;21790;42.668;23.298;2023-08-20T08:46:15;94942.25;;;33.09;29.62
35676;BME280;21790;42.668;23.298;2023-08-20T08:48:43;94946.16;;;33.13;28.13
35676;BME280;21790;42.668;23.298;2023-08-20T08:51:09;94949.75;;;33.24;27.76
35676;BME280;21790;42.668;23.298;2023-08-20T08:53:35;94943.09;;;33.31;27.74
35676;BME280;21790;42.668;23.298;2023-08-20T08:56:01;94941.28;;;33.35;27.26
35676;BME280;21790;42.668;23.298;2023-08-20T08:58:28;94943.22;;;33.42;26.47
35676;BME280;21790;42.668;23.298;2023-08-20T09:00:54;94949.66;;;33.52;26.32
35676;BME280;21790;42.668;23.298;2023-08-20T09:03:20;94943.03;;;33.50;25.80
35676;BME280;21790;42.668;23.298;2023-08-20T09:05:54;94944.34;;;33.58;26.09
35676;BME280;21790;42.668;23.298;2023-08-20T09:08:30;94942.84;;;33.57;24.70
35676;BME280;21790;42.668;23.298;2023-08-20T09:10:57;94941.22;;;33.54;25.58
35676;BME280;21790;42.668;23.298;2023-08-20T09:13:37;94940.13;;;33.59;26.36
35676;BME280;21790;42.668;23.298;2023-08-20T09:16:07;94936.50;;;33.69;25.96
35676;BME280;21790;42.668;23.298;2023-08-20T09:18:54;94933.63;;;33.69;25.71
35676;BME280;21790;42.668;23.298;2023-08-20T09:21:27;94934.75;;;33.44;25.57
35676;BME280;21790;42.668;23.298;2023-08-20T09:24:01;94930.19;;;33.51;25.94
35676;BME280;21790;42.668;23.298;2023-08-20T09:26:27;94938.97;;;33.53;26.63
35676;BME280;21790;42.668;23.298;2023-08-20T09:28:55;94939.56;;;33.51;26.10
35676;BME280;21790;42.668;23.298;2023-08-20T09:31:37;94938.13;;;33.72;26.02
35676;BME280;21790;42.668;23.298;2023-08-20T09:34:02;94930.91;;;33.61;25.38
35676;BME280;21790;42.668;23.298;2023-08-20T09:36:34;94938.53;;;33.78;25.64
35676;BME280;21790;42.668;23.298;2023-08-20T09:39:03;94934.13;;;33.86;25.75
35676;BME280;21790;42.668;23.298;2023-08-20T09:41:29;94929.16;;;33.87;26.11
35676;BME280;21790;42.668;23.298;2023-08-20T09:43:57;94924.44;;;33.91;25.55
35676;BME280;21790;42.668;23.298;2023-08-20T09:46:27;94920.56;;;34.08;25.40
35676;BME280;21790;42.668;23.298;2023-08-20T09:48:56;94928.75;;;33.81;24.70
35676;BME280;21790;42.668;23.298;2023-08-20T09:51:27;94928.59;;;34.00;24.62
35676;BME280;21790;42.668;23.298;2023-08-20T09:56:29;94915.69;;;34.20;24.92
35676;BME280;21790;42.668;23.298;2023-08-20T09:58:57;94917.97;;;34.12;25.78
35676;BME280;21790;42.668;23.298;2023-08-20T10:01:23;94919.28;;;34.21;25.36
35676;BME280;21790;42.668;23.298;2023-08-20T10:03:50;94916.88;;;34.38;25.37
35676;BME280;21790;42.668;23.298;2023-08-20T10:06:23;94919.91;;;34.40;24.45
35676;BME280;21790;42.668;23.298;2023-08-20T10:09:02;94928.03;;;34.44;24.55
35676;BME280;21790;42.668;23.298;2023-08-20T10:11:28;94920.00;;;34.42;24.79
35676;BME280;21790;42.668;23.298;2023-08-20T10:13:54;94910.84;;;34.56;24.59
35676;BME280;21790;42.668;23.298;2023-08-20T10:16:21;94922.53;;;34.48;24.69
35676;BME280;21790;42.668;23.298;2023-08-20T10:18:49;94915.88;;;34.67;24.32
35676;BME280;21790;42.668;23.298;2023-08-20T10:21:16;94915.44;;;34.49;22.43
35676;BME280;21790;42.668;23.298;2023-08-20T10:23:54;94911.47;;;34.54;22.74
35676;BME280;21790;42.668;23.298;2023-08-20T10:26:20;94916.84;;;34.60;23.19
35676;BME280;21790;42.668;23.298;2023-08-20T10:28:47;94915.09;;;34.55;23.60
35676;BME280;21790;42.668;23.298;2023-08-20T10:31:13;94913.31;;;34.50;23.82
35676;BME280;21790;42.668;23.298;2023-08-20T10:33:53;94904.63;;;34.59;23.88
35676;BME280;21790;42.668;23.298;2023-08-20T10:36:21;94905.13;;;34.56;24.17
35676;BME280;21790;42.668;23.298;2023-08-20T10:38:56;94909.34;;;34.55;24.43
35676;BME280;21790;42.668;23.298;2023-08-20T10:41:27;94890.59;;;34.42;24.26
35676;BME280;21790;42.668;23.298;2023-08-20T10:43:57;94897.00;;;34.52;24.39
35676;BME280;21790;42.668;23.298;2023-08-20T10:46:24;94899.91;;;34.64;24.43
35676;BME280;21790;42.668;23.298;2023-08-20T10:48:55;94887.69;;;34.63;23.85
35676;BME280;21790;42.668;23.298;2023-08-20T10:51:32;94900.78;;;34.66;23.94
35676;BME280;21790;42.668;23.298;2023-08-20T10:56:43;94893.34;;;34.73;24.56
35676;BME280;21790;42.668;23.298;2023-08-20T10:59:12;94897.16;;;34.66;23.69
35676;BME280;21790;42.668;23.298;2023-08-20T11:01:38;94902.97;;;34.23;23.31
35676;BME280;21790;42.668;23.298;2023-08-20T11:04:04;94886.16;;;34.29;23.03
35676;BME280;21790;42.668;23.298;2023-08-20T11:06:38;94889.44;;;34.35;23.41
35676;BME280;21790;42.668;23.298;2023-08-20T11:09:04;94875.66;;;34.22;24.09
35676;BME280;21790;42.668;23.298;2023-08-20T11:11:31;94883.16;;;34.27;23.92
35676;BME280;21790;42.668;23.298;2023-08-20T11:14:00;94888.53;;;34.33;24.32
35676;BME280;21790;42.668;23.298;2023-08-20T11:16:29;94873.78;;;34.27;24.81
35676;BME280;21790;42.668;23.298;2023-08-20T11:18:56;94869.78;;;34.20;23.75
35676;BME280;21790;42.668;23.298;2023-08-20T11:21:23;94866.00;;;34.18;23.84
35676;BME280;21790;42.668;23.298;2023-08-20T11:23:48;94880.50;;;34.20;24.37
35676;BME280;21790;42.668;23.298;2023-08-20T11:26:14;94868.94;;;34.29;24.15
35676;BME280;21790;42.668;23.298;2023-08-20T11:28:45;94867.84;;;34.34;23.72
35676;BME280;21790;42.668;23.298;2023-08-20T11:31:11;94871.94;;;34.31;24.06
35676;BME280;21790;42.668;23.298;2023-08-20T11:33:37;94869.91;;;34.22;24.09
35676;BME280;21790;42.668;23.298;2023-08-20T11:36:05;94867.25;;;34.36;24.35
35676;BME280;21790;42.668;23.298;2023-08-20T11:38:30;94872.47;;;34.39;24.34
35676;BME280;21790;42.668;23.298;2023-08-20T11:40:57;94855.13;;;34.37;24.87
35676;BME280;21790;42.668;23.298;2023-08-20T11:43:27;94863.22;;;34.29;24.42
35676;BME280;21790;42.668;23.298;2023-08-20T11:45:53;94856.22;;;34.11;24.00
35676;BME280;21790;42.668;23.298;2023-08-20T11:48:20;94853.25;;;34.09;24.08
35676;BME280;21790;42.668;23.298;2023-08-20T11:50:46;94865.72;;;34.14;24.68
35676;BME280;21790;42.668;23.298;2023-08-20T11:53:12;94869.16;;;34.00;24.94
35676;BME280;21790;42.668;23.298;2023-08-20T11:55:42;94857.88;;;34.14;24.89
35676;BME280;21790;42.668;23.298;2023-08-20T11:58:14;94848.22;;;34.10;24.79
35676;BME280;21790;42.668;23.298;2023-08-20T12:00:40;94848.53;;;33.92;24.73
35676;BME280;21790;42.668;23.298;2023-08-20T12:03:06;94847.78;;;33.71;25.00
35676;BME280;21790;42.668;23.298;2023-08-20T12:05:33;94856.16;;;33.99;24.46
35676;BME280;21790;42.668;23.298;2023-08-20T12:08:00;94861.16;;;33.99;25.09
35676;BME280;21790;42.668;23.298;2023-08-20T12:10:28;94843.25;;;34.10;25.03
35676;BME280;21790;42.668;23.298;2023-08-20T12:12:55;94851.06;;;33.98;24.95
35676;BME280;21790;42.668;23.298;2023-08-20T12:15:23;94845.09;;;34.06;24.81
35676;BME280;21790;42.668;23.298;2023-08-20T12:18:03;94839.28;;;34.15;24.62
35676;BME280;21790;42.668;23.298;2023-08-20T12:20:31;94842.59;;;33.79;25.11
35676;BME280;21790;42.668;23.298;2023-08-20T12:23:03;94838.91;;;34.09;25.26
35676;BME280;21790;42.668;23.298;2023-08-20T12:25:34;94831.09;;;34.21;25.21
35676;BME280;21790;42.668;23.298;2023-08-20T12:28:02;94824.06;;;34.13;25.00
35676;BME280;21790;42.668;23.298;2023-08-20T12:30:31;94830.22;;;34.19;25.24
35676;BME280;21790;42.668;23.298;2023-08-20T12:32:57;94833.16;;;33.88;25.48
35676;BME280;21790;42.668;23.298;2023-08-20T12:35:22;94824.84;;;33.92;25.66
35676;BME280;21790;42.668;23.298;2023-08-20T12:37:48;94815.31;;;34.11;26.01
35676;BME280;21790;42.668;23.298;2023-08-20T12:40:16;94815.28;;;34.20;25.86
35676;BME280;21790;42.668;23.298;2023-08-20T12:42:43;94820.84;;;34.18;26.30
35676;BME280;21790;42.668;23.298;2023-08-20T12:45:09;94819.63;;;34.21;25.92
35676;BME280;21790;42.668;23.298;2023-08-20T12:47:36;94819.91;;;34.25;25.46
35676;BME280;21790;42.668;23.298;2023-08-20T12:50:01;94822.22;;;34.17;25.76
35676;BME280;21790;42.668;23.298;2023-08-20T12:52:29;94819.91;;;34.25;25.79
35676;BME280;21790;42.668;23.298;2023-08-20T12:54:59;94819.44;;;34.29;25.69
35676;BME280;21790;42.668;23.298;2023-08-20T12:57:24;94816.19;;;34.34;26.04
35676;BME280;21790;42.668;23.298;2023-08-20T12:59:50;94817.56;;;34.33;26.05